sensor_id;sensor_type;location;lat;lon;timestamp;P1;durP1;ratioP1;P2;durP2;ratioP2
65234;SDS011;51820;48.374;10.930;2022-11-30T00:01:37;26.90;;;11.60;;
65234;SDS011;51820;48.374;10.930;2022-11-30T00:04:07;26.52;;;12.05;;
65234;SDS011;51820;48.374;10.930;2022-11-30T00:06:35;27.42;;;13.43;;
65234;SDS011;51820;48.374;10.930;2022-11-30T00:09:04;32.28;;;12.90;;
65234;SDS011;51820;48.374;10.930;2022-11-30T00:11:32;26.00;;;12.93;;
65234;SDS011;51820;48.374;10.930;2022-11-30T00:14:01;29.33;;;12.83;;
65234;SDS011;51820;48.374;10.930;2022-11-30T00:16:31;28.60;;;12.52;;
65234;SDS011;51820;48.374;10.930;2022-11-30T00:19:01;27.40;;;12.38;;
65234;SDS011;51820;48.374;10.930;2022-11-30T00:21:30;26.45;;;11.82;;
65234;SDS011;51820;48.374;10.930;2022-11-30T00:23:58;27.10;;;12.57;;
65234;SDS011;51820;48.374;10.930;2022-11-30T00:26:27;29.07;;;13.20;;
65234;SDS011;51820;48.374;10.930;2022-11-30T00:28:56;28.98;;;12.32;;
65234;SDS011;51820;48.374;10.930;2022-11-30T00:31:24;31.05;;;12.80;;
65234;SDS011;51820;48.374;10.930;2022-11-30T00:33:55;24.52;;;11.18;;
65234;SDS011;51820;48.374;10.930;2022-11-30T00:36:24;27.95;;;13.23;;
65234;SDS011;51820;48.374;10.930;2022-11-30T00:38:53;30.77;;;12.67;;
65234;SDS011;51820;48.374;10.930;2022-11-30T00:41:21;31.50;;;12.38;;
65234;SDS011;51820;48.374;10.930;2022-11-30T00:43:50;30.48;;;13.65;;
65234;SDS011;51820;48.374;10.930;2022-11-30T00:46:18;29.25;;;13.70;;
65234;SDS011;51820;48.374;10.930;2022-11-30T00:48:47;29.05;;;13.55;;
65234;SDS011;51820;48.374;10.930;2022-11-30T00:51:17;33.20;;;14.50;;
65234;SDS011;51820;48.374;10.930;2022-11-30T00:53:46;32.42;;;14.23;;
65234;SDS011;51820;48.374;10.930;2022-11-30T00:56:14;31.25;;;13.38;;
65234;SDS011;51820;48.374;10.930;2022-11-30T00:58:43;28.90;;;13.25;;
65234;SDS011;51820;48.374;10.930;2022-11-30T01:01:11;31.15;;;13.77;;
65234;SDS011;51820;48.374;10.930;2022-11-30T01:03:40;29.57;;;13.50;;
65234;SDS011;51820;48.374;10.930;2022-11-30T01:06:09;32.88;;;14.43;;
65234;SDS011;51820;48.374;10.930;2022-11-30T01:08:39;35.10;;;14.65;;
65234;SDS011;51820;48.374;10.930;2022-11-30T01:11:08;33.72;;;15.70;;
65234;SDS011;51820;48.374;10.930;2022-11-30T01:13:39;36.08;;;15.07;;
65234;SDS011;51820;48.374;10.930;2022-11-30T01:16:09;39.13;;;15.37;;
65234;SDS011;51820;48.374;10.930;2022-11-30T01:18:41;37.53;;;15.60;;
65234;SDS011;51820;48.374;10.930;2022-11-30T01:21:11;38.50;;;15.82;;
65234;SDS011;51820;48.374;10.930;2022-11-30T01:23:44;37.67;;;15.02;;
65234;SDS011;51820;48.374;10.930;2022-11-30T01:26:13;41.63;;;15.90;;
65234;SDS011;51820;48.374;10.930;2022-11-30T01:28:42;40.20;;;16.43;;
65234;SDS011;51820;48.374;10.930;2022-11-30T01:31:11;40.85;;;16.67;;
65234;SDS011;51820;48.374;10.930;2022-11-30T01:33:40;38.22;;;16.13;;
65234;SDS011;51820;48.374;10.930;2022-11-30T01:36:10;37.00;;;17.17;;
65234;SDS011;51820;48.374;10.930;2022-11-30T01:38:40;38.38;;;15.90;;
65234;SDS011;51820;48.374;10.930;2022-11-30T01:41:11;38.73;;;16.20;;
65234;SDS011;51820;48.374;10.930;2022-11-30T01:43:42;37.72;;;16.02;;
65234;SDS011;51820;48.374;10.930;2022-11-30T01:46:19;40.60;;;17.10;;
65234;SDS011;51820;48.374;10.930;2022-11-30T01:48:54;42.65;;;16.52;;
65234;SDS011;51820;48.374;10.930;2022-11-30T01:51:27;40.65;;;16.40;;
65234;SDS011;51820;48.374;10.930;2022-11-30T01:53:58;39.87;;;16.20;;
65234;SDS011;51820;48.374;10.930;2022-11-30T01:56:29;46.55;;;17.30;;
65234;SDS011;51820;48.374;10.930;2022-11-30T01:58:57;40.35;;;16.40;;
65234;SDS011;51820;48.374;10.930;2022-11-30T02:01:26;40.85;;;16.58;;
65234;SDS011;51820;48.374;10.930;2022-11-30T02:03:56;40.40;;;17.58;;
65234;SDS011;51820;48.374;10.930;2022-11-30T02:06:28;40.53;;;16.73;;
65234;SDS011;51820;48.374;10.930;2022-11-30T02:08:57;40.17;;;17.88;;
65234;SDS011;51820;48.374;10.930;2022-11-30T02:11:25;38.28;;;17.58;;
65234;SDS011;51820;48.374;10.930;2022-11-30T02:13:59;38.72;;;16.48;;
65234;SDS011;51820;48.374;10.930;2022-11-30T02:16:40;39.97;;;17.90;;
65234;SDS011;51820;48.374;10.930;2022-11-30T02:19:41;43.17;;;18.10;;
65234;SDS011;51820;48.374;10.930;2022-11-30T02:22:28;38.88;;;17.23;;
65234;SDS011;51820;48.374;10.930;2022-11-30T02:25:11;37.97;;;17.85;;
65234;SDS011;51820;48.374;10.930;2022-11-30T02:27:55;39.15;;;17.55;;
65234;SDS011;51820;48.374;10.930;2022-11-30T02:30:38;44.42;;;17.80;;
65234;SDS011;51820;48.374;10.930;2022-11-30T02:33:13;42.87;;;17.80;;
65234;SDS011;51820;48.374;10.930;2022-11-30T02:35:45;45.63;;;17.70;;
65234;SDS011;51820;48.374;10.930;2022-11-30T02:38:20;41.03;;;17.88;;
65234;SDS011;51820;48.374;10.930;2022-11-30T02:40:50;44.72;;;19.02;;
65234;SDS011;51820;48.374;10.930;2022-11-30T02:43:18;47.30;;;19.02;;
65234;SDS011;51820;48.374;10.930;2022-11-30T02:45:55;40.80;;;17.23;;
65234;SDS011;51820;48.374;10.930;2022-11-30T02:48:29;44.67;;;18.00;;
65234;SDS011;51820;48.374;10.930;2022-11-30T02:51:04;47.30;;;17.40;;
65234;SDS011;51820;48.374;10.930;2022-11-30T02:53:36;40.33;;;17.13;;
65234;SDS011;51820;48.374;10.930;2022-11-30T02:56:04;41.05;;;16.67;;
65234;SDS011;51820;48.374;10.930;2022-11-30T02:58:33;42.27;;;18.00;;
65234;SDS011;51820;48.374;10.930;2022-11-30T03:01:02;40.92;;;16.90;;
65234;SDS011;51820;48.374;10.930;2022-11-30T03:03:31;46.90;;;18.00;;
65234;SDS011;51820;48.374;10.930;2022-11-30T03:05:59;40.95;;;16.92;;
65234;SDS011;51820;48.374;10.930;2022-11-30T03:08:28;40.22;;;16.73;;
65234;SDS011;51820;48.374;10.930;2022-11-30T03:10:57;49.33;;;18.13;;
65234;SDS011;51820;48.374;10.930;2022-11-30T03:13:28;43.20;;;16.98;;
65234;SDS011;51820;48.374;10.930;2022-11-30T03:15:56;41.47;;;17.23;;
65234;SDS011;51820;48.374;10.930;2022-11-30T03:18:27;44.60;;;17.33;;
65234;SDS011;51820;48.374;10.930;2022-11-30T03:20:55;44.70;;;19.05;;
65234;SDS011;51820;48.374;10.930;2022-11-30T03:23:24;42.07;;;17.57;;
65234;SDS011;51820;48.374;10.930;2022-11-30T03:25:55;37.55;;;15.73;;
65234;SDS011;51820;48.374;10.930;2022-11-30T03:28:24;42.15;;;18.27;;
65234;SDS011;51820;48.374;10.930;2022-11-30T03:30:53;42.10;;;17.52;;
65234;SDS011;51820;48.374;10.930;2022-11-30T03:33:23;41.80;;;17.02;;
65234;SDS011;51820;48.374;10.930;2022-11-30T03:35:58;40.47;;;17.70;;
65234;SDS011;51820;48.374;10.930;2022-11-30T03:38:28;40.72;;;16.83;;
65234;SDS011;51820;48.374;10.930;2022-11-30T03:40:58;49.60;;;17.73;;
65234;SDS011;51820;48.374;10.930;2022-11-30T03:43:28;43.35;;;16.75;;
65234;SDS011;51820;48.374;10.930;2022-11-30T03:45:56;44.70;;;17.20;;
65234;SDS011;51820;48.374;10.930;2022-11-30T03:48:25;41.53;;;16.23;;
65234;SDS011;51820;48.374;10.930;2022-11-30T03:50:53;44.97;;;16.70;;
65234;SDS011;51820;48.374;10.930;2022-11-30T03:53:23;40.10;;;17.52;;
65234;SDS011;51820;48.374;10.930;2022-11-30T03:55:52;48.67;;;18.00;;
65234;SDS011;51820;48.374;10.930;2022-11-30T03:58:22;40.42;;;17.15;;
65234;SDS011;51820;48.374;10.930;2022-11-30T04:00:56;39.03;;;16.50;;
65234;SDS011;51820;48.374;10.930;2022-11-30T04:03:26;39.03;;;17.13;;
65234;SDS011;51820;48.374;10.930;2022-11-30T04:05:54;38.42;;;16.13;;
65234;SDS011;51820;48.374;10.930;2022-11-30T04:08:25;37.60;;;16.85;;
65234;SDS011;51820;48.374;10.930;2022-11-30T04:10:54;40.40;;;16.67;;
65234;SDS011;51820;48.374;10.930;2022-11-30T04:13:24;45.47;;;17.17;;
65234;SDS011;51820;48.374;10.930;2022-11-30T04:15:53;43.45;;;16.20;;
65234;SDS011;51820;48.374;10.930;2022-11-30T04:18:23;43.60;;;16.42;;
65234;SDS011;51820;48.374;10.930;2022-11-30T04:20:53;40.67;;;16.23;;
65234;SDS011;51820;48.374;10.930;2022-11-30T04:23:29;46.67;;;17.05;;
65234;SDS011;51820;48.374;10.930;2022-11-30T04:25:58;39.33;;;16.33;;
65234;SDS011;51820;48.374;10.930;2022-11-30T04:28:27;42.72;;;16.95;;
65234;SDS011;51820;48.374;10.930;2022-11-30T04:30:55;46.05;;;17.83;;
65234;SDS011;51820;48.374;10.930;2022-11-30T04:33:25;46.40;;;17.50;;
65234;SDS011;51820;48.374;10.930;2022-11-30T04:35:54;45.70;;;17.65;;
65234;SDS011;51820;48.374;10.930;2022-11-30T04:38:28;48.30;;;17.83;;
65234;SDS011;51820;48.374;10.930;2022-11-30T04:40:58;45.35;;;16.27;;
65234;SDS011;51820;48.374;10.930;2022-11-30T04:43:32;40.10;;;16.67;;
65234;SDS011;51820;48.374;10.930;2022-11-30T04:46:03;40.65;;;15.70;;
65234;SDS011;51820;48.374;10.930;2022-11-30T04:48:35;44.97;;;17.27;;
65234;SDS011;51820;48.374;10.930;2022-11-30T04:51:04;43.27;;;17.23;;
65234;SDS011;51820;48.374;10.930;2022-11-30T04:53:35;43.25;;;16.75;;
65234;SDS011;51820;48.374;10.930;2022-11-30T04:56:07;42.35;;;16.58;;
65234;SDS011;51820;48.374;10.930;2022-11-30T04:58:37;45.67;;;17.08;;
65234;SDS011;51820;48.374;10.930;2022-11-30T05:01:06;46.05;;;15.95;;
65234;SDS011;51820;48.374;10.930;2022-11-30T05:03:37;47.07;;;16.43;;
65234;SDS011;51820;48.374;10.930;2022-11-30T05:06:06;44.95;;;16.17;;
65234;SDS011;51820;48.374;10.930;2022-11-30T05:08:36;48.80;;;15.93;;
65234;SDS011;51820;48.374;10.930;2022-11-30T05:11:04;52.70;;;16.23;;
65234;SDS011;51820;48.374;10.930;2022-11-30T05:13:34;45.42;;;16.08;;
65234;SDS011;51820;48.374;10.930;2022-11-30T05:16:03;50.20;;;16.00;;
65234;SDS011;51820;48.374;10.930;2022-11-30T05:18:33;48.65;;;16.42;;
65234;SDS011;51820;48.374;10.930;2022-11-30T05:21:02;46.70;;;16.60;;
65234;SDS011;51820;48.374;10.930;2022-11-30T05:23:33;46.30;;;16.25;;
65234;SDS011;51820;48.374;10.930;2022-11-30T05:26:03;49.17;;;16.98;;
65234;SDS011;51820;48.374;10.930;2022-11-30T05:28:31;47.70;;;16.33;;
65234;SDS011;51820;48.374;10.930;2022-11-30T05:31:01;50.25;;;17.80;;
65234;SDS011;51820;48.374;10.930;2022-11-30T05:33:48;50.47;;;16.88;;
65234;SDS011;51820;48.374;10.930;2022-11-30T05:36:17;53.17;;;18.85;;
65234;SDS011;51820;48.374;10.930;2022-11-30T05:38:45;45.85;;;16.75;;
65234;SDS011;51820;48.374;10.930;2022-11-30T05:41:17;47.37;;;17.30;;
65234;SDS011;51820;48.374;10.930;2022-11-30T05:43:47;49.53;;;18.13;;
65234;SDS011;51820;48.374;10.930;2022-11-30T05:46:16;49.60;;;17.75;;
65234;SDS011;51820;48.374;10.930;2022-11-30T05:48:44;54.90;;;17.88;;
65234;SDS011;51820;48.374;10.930;2022-11-30T05:51:14;53.88;;;16.77;;
65234;SDS011;51820;48.374;10.930;2022-11-30T05:53:44;54.00;;;17.57;;
65234;SDS011;51820;48.374;10.930;2022-11-30T05:56:14;46.10;;;17.20;;
65234;SDS011;51820;48.374;10.930;2022-11-30T05:58:48;44.88;;;16.67;;
65234;SDS011;51820;48.374;10.930;2022-11-30T06:01:16;57.03;;;19.17;;
65234;SDS011;51820;48.374;10.930;2022-11-30T06:03:45;53.28;;;19.30;;
65234;SDS011;51820;48.374;10.930;2022-11-30T06:06:14;51.33;;;18.87;;
65234;SDS011;51820;48.374;10.930;2022-11-30T06:08:43;48.88;;;18.35;;
65234;SDS011;51820;48.374;10.930;2022-11-30T06:11:12;49.60;;;17.48;;
65234;SDS011;51820;48.374;10.930;2022-11-30T06:13:41;53.80;;;18.63;;
65234;SDS011;51820;48.374;10.930;2022-11-30T06:16:11;57.20;;;19.42;;
65234;SDS011;51820;48.374;10.930;2022-11-30T06:18:39;52.87;;;18.03;;
65234;SDS011;51820;48.374;10.930;2022-11-30T06:21:09;46.17;;;17.27;;
65234;SDS011;51820;48.374;10.930;2022-11-30T06:23:54;53.92;;;19.27;;
65234;SDS011;51820;48.374;10.930;2022-11-30T06:26:34;54.45;;;18.92;;
65234;SDS011;51820;48.374;10.930;2022-11-30T06:29:03;55.13;;;17.55;;
65234;SDS011;51820;48.374;10.930;2022-11-30T06:31:33;52.10;;;18.97;;
65234;SDS011;51820;48.374;10.930;2022-11-30T06:34:01;51.83;;;18.42;;
65234;SDS011;51820;48.374;10.930;2022-11-30T06:36:30;60.47;;;18.48;;
65234;SDS011;51820;48.374;10.930;2022-11-30T06:39:02;52.90;;;19.50;;
65234;SDS011;51820;48.374;10.930;2022-11-30T06:41:30;54.60;;;18.90;;
65234;SDS011;51820;48.374;10.930;2022-11-30T06:43:59;50.07;;;17.60;;
65234;SDS011;51820;48.374;10.930;2022-11-30T06:46:27;45.65;;;18.23;;
65234;SDS011;51820;48.374;10.930;2022-11-30T06:48:57;50.53;;;16.98;;
65234;SDS011;51820;48.374;10.930;2022-11-30T06:51:26;43.47;;;16.08;;
65234;SDS011;51820;48.374;10.930;2022-11-30T06:53:55;46.08;;;15.77;;
65234;SDS011;51820;48.374;10.930;2022-11-30T06:56:24;41.53;;;16.33;;
65234;SDS011;51820;48.374;10.930;2022-11-30T06:58:53;42.08;;;15.90;;
65234;SDS011;51820;48.374;10.930;2022-11-30T07:01:21;46.13;;;16.05;;
65234;SDS011;51820;48.374;10.930;2022-11-30T07:03:50;41.45;;;15.80;;
65234;SDS011;51820;48.374;10.930;2022-11-30T07:06:20;43.03;;;16.08;;
65234;SDS011;51820;48.374;10.930;2022-11-30T07:08:49;44.57;;;16.03;;
65234;SDS011;51820;48.374;10.930;2022-11-30T07:11:17;41.83;;;15.38;;
65234;SDS011;51820;48.374;10.930;2022-11-30T07:13:46;39.45;;;16.63;;
65234;SDS011;51820;48.374;10.930;2022-11-30T07:16:14;41.22;;;16.35;;
65234;SDS011;51820;48.374;10.930;2022-11-30T07:18:43;36.70;;;15.20;;
65234;SDS011;51820;48.374;10.930;2022-11-30T07:21:11;43.17;;;17.40;;
65234;SDS011;51820;48.374;10.930;2022-11-30T07:23:44;37.33;;;14.40;;
65234;SDS011;51820;48.374;10.930;2022-11-30T07:26:31;43.83;;;15.27;;
65234;SDS011;51820;48.374;10.930;2022-11-30T07:29:00;38.40;;;15.27;;
65234;SDS011;51820;48.374;10.930;2022-11-30T07:31:31;35.65;;;13.77;;
65234;SDS011;51820;48.374;10.930;2022-11-30T07:34:02;39.03;;;13.50;;
65234;SDS011;51820;48.374;10.930;2022-11-30T07:36:32;30.63;;;12.00;;
65234;SDS011;51820;48.374;10.930;2022-11-30T07:39:03;32.53;;;13.38;;
65234;SDS011;51820;48.374;10.930;2022-11-30T07:41:31;32.50;;;12.20;;
65234;SDS011;51820;48.374;10.930;2022-11-30T07:44:02;32.38;;;12.52;;
65234;SDS011;51820;48.374;10.930;2022-11-30T07:46:31;31.63;;;12.27;;
65234;SDS011;51820;48.374;10.930;2022-11-30T07:49:01;29.92;;;12.35;;
65234;SDS011;51820;48.374;10.930;2022-11-30T07:51:30;30.20;;;12.32;;
65234;SDS011;51820;48.374;10.930;2022-11-30T07:53:58;31.60;;;12.27;;
65234;SDS011;51820;48.374;10.930;2022-11-30T07:56:28;26.52;;;10.88;;
65234;SDS011;51820;48.374;10.930;2022-11-30T07:58:57;29.27;;;11.00;;
65234;SDS011;51820;48.374;10.930;2022-11-30T08:01:27;28.50;;;11.18;;
65234;SDS011;51820;48.374;10.930;2022-11-30T08:03:57;27.65;;;11.10;;
65234;SDS011;51820;48.374;10.930;2022-11-30T08:06:26;26.17;;;10.73;;
65234;SDS011;51820;48.374;10.930;2022-11-30T08:08:56;22.55;;;8.40;;
65234;SDS011;51820;48.374;10.930;2022-11-30T08:11:27;23.40;;;8.67;;
65234;SDS011;51820;48.374;10.930;2022-11-30T08:13:58;24.77;;;9.43;;
65234;SDS011;51820;48.374;10.930;2022-11-30T08:16:27;19.77;;;7.82;;
65234;SDS011;51820;48.374;10.930;2022-11-30T08:18:57;23.10;;;8.35;;
65234;SDS011;51820;48.374;10.930;2022-11-30T08:21:25;21.98;;;8.90;;
65234;SDS011;51820;48.374;10.930;2022-11-30T08:23:54;22.47;;;7.83;;
65234;SDS011;51820;48.374;10.930;2022-11-30T08:26:24;20.90;;;8.38;;
65234;SDS011;51820;48.374;10.930;2022-11-30T08:28:55;22.25;;;8.88;;
65234;SDS011;51820;48.374;10.930;2022-11-30T08:31:25;22.08;;;8.68;;
65234;SDS011;51820;48.374;10.930;2022-11-30T08:33:55;29.00;;;9.50;;
65234;SDS011;51820;48.374;10.930;2022-11-30T08:36:25;28.83;;;10.20;;
65234;SDS011;51820;48.374;10.930;2022-11-30T08:38:55;25.90;;;9.75;;
65234;SDS011;51820;48.374;10.930;2022-11-30T08:41:25;20.67;;;8.93;;
65234;SDS011;51820;48.374;10.930;2022-11-30T08:43:55;20.75;;;8.70;;
65234;SDS011;51820;48.374;10.930;2022-11-30T08:46:24;21.70;;;7.65;;
65234;SDS011;51820;48.374;10.930;2022-11-30T08:49:12;17.80;;;7.90;;
65234;SDS011;51820;48.374;10.930;2022-11-30T08:51:51;19.67;;;8.25;;
65234;SDS011;51820;48.374;10.930;2022-11-30T08:54:41;19.70;;;8.05;;
65234;SDS011;51820;48.374;10.930;2022-11-30T08:57:30;19.42;;;8.73;;
65234;SDS011;51820;48.374;10.930;2022-11-30T09:00:00;22.63;;;7.95;;
65234;SDS011;51820;48.374;10.930;2022-11-30T09:02:30;16.77;;;7.27;;
65234;SDS011;51820;48.374;10.930;2022-11-30T09:04:58;18.42;;;7.57;;
65234;SDS011;51820;48.374;10.930;2022-11-30T09:07:27;16.58;;;6.90;;
65234;SDS011;51820;48.374;10.930;2022-11-30T09:09:55;16.13;;;6.53;;
65234;SDS011;51820;48.374;10.930;2022-11-30T09:12:24;17.08;;;6.60;;
65234;SDS011;51820;48.374;10.930;2022-11-30T09:14:53;15.33;;;6.20;;
65234;SDS011;51820;48.374;10.930;2022-11-30T09:17:25;16.98;;;6.80;;
65234;SDS011;51820;48.374;10.930;2022-11-30T09:19:53;18.33;;;6.80;;
65234;SDS011;51820;48.374;10.930;2022-11-30T09:22:22;17.73;;;6.70;;
65234;SDS011;51820;48.374;10.930;2022-11-30T09:24:51;15.23;;;6.10;;
65234;SDS011;51820;48.374;10.930;2022-11-30T09:27:20;15.50;;;6.87;;
65234;SDS011;51820;48.374;10.930;2022-11-30T09:29:49;17.27;;;7.55;;
65234;SDS011;51820;48.374;10.930;2022-11-30T09:32:17;15.90;;;6.68;;
65234;SDS011;51820;48.374;10.930;2022-11-30T09:34:47;17.60;;;6.97;;
65234;SDS011;51820;48.374;10.930;2022-11-30T09:37:16;15.75;;;6.82;;
65234;SDS011;51820;48.374;10.930;2022-11-30T09:39:45;17.03;;;6.40;;
65234;SDS011;51820;48.374;10.930;2022-11-30T09:42:20;16.67;;;7.55;;
65234;SDS011;51820;48.374;10.930;2022-11-30T09:45:00;16.50;;;6.82;;
65234;SDS011;51820;48.374;10.930;2022-11-30T09:47:42;19.23;;;7.63;;
65234;SDS011;51820;48.374;10.930;2022-11-30T09:50:33;17.33;;;7.15;;
65234;SDS011;51820;48.374;10.930;2022-11-30T09:53:08;17.07;;;7.57;;
65234;SDS011;51820;48.374;10.930;2022-11-30T09:55:40;19.35;;;6.80;;
65234;SDS011;51820;48.374;10.930;2022-11-30T09:58:12;18.92;;;7.47;;
65234;SDS011;51820;48.374;10.930;2022-11-30T10:00:49;20.00;;;7.38;;
65234;SDS011;51820;48.374;10.930;2022-11-30T10:03:18;18.60;;;8.40;;
65234;SDS011;51820;48.374;10.930;2022-11-30T10:05:54;16.87;;;7.77;;
65234;SDS011;51820;48.374;10.930;2022-11-30T10:08:29;21.52;;;8.23;;
65234;SDS011;51820;48.374;10.930;2022-11-30T10:11:15;20.98;;;7.85;;
65234;SDS011;51820;48.374;10.930;2022-11-30T10:13:55;20.42;;;8.18;;
65234;SDS011;51820;48.374;10.930;2022-11-30T10:16:34;20.38;;;8.05;;
65234;SDS011;51820;48.374;10.930;2022-11-30T10:19:13;18.10;;;8.00;;
65234;SDS011;51820;48.374;10.930;2022-11-30T10:21:58;18.40;;;8.18;;
65234;SDS011;51820;48.374;10.930;2022-11-30T10:24:36;20.15;;;8.25;;
65234;SDS011;51820;48.374;10.930;2022-11-30T10:27:24;23.55;;;8.60;;
65234;SDS011;51820;48.374;10.930;2022-11-30T10:30:12;21.80;;;8.27;;
65234;SDS011;51820;48.374;10.930;2022-11-30T10:32:43;42.07;;;17.77;;
65234;SDS011;51820;48.374;10.930;2022-11-30T10:35:16;27.27;;;10.82;;
65234;SDS011;51820;48.374;10.930;2022-11-30T10:37:50;20.13;;;8.95;;
65234;SDS011;51820;48.374;10.930;2022-11-30T10:40:29;18.90;;;8.65;;
65234;SDS011;51820;48.374;10.930;2022-11-30T10:43:05;20.67;;;8.63;;
65234;SDS011;51820;48.374;10.930;2022-11-30T10:45:43;21.87;;;8.33;;
65234;SDS011;51820;48.374;10.930;2022-11-30T10:48:16;18.77;;;7.47;;
65234;SDS011;51820;48.374;10.930;2022-11-30T10:50:51;21.75;;;7.50;;
65234;SDS011;51820;48.374;10.930;2022-11-30T10:53:22;21.75;;;8.60;;
65234;SDS011;51820;48.374;10.930;2022-11-30T10:55:54;21.55;;;9.15;;
65234;SDS011;51820;48.374;10.930;2022-11-30T10:58:27;21.10;;;8.53;;
65234;SDS011;51820;48.374;10.930;2022-11-30T11:01:00;19.52;;;8.18;;
65234;SDS011;51820;48.374;10.930;2022-11-30T11:03:31;15.18;;;7.63;;
65234;SDS011;51820;48.374;10.930;2022-11-30T11:06:08;18.23;;;7.47;;
65234;SDS011;51820;48.374;10.930;2022-11-30T11:08:42;16.48;;;7.10;;
65234;SDS011;51820;48.374;10.930;2022-11-30T11:11:26;13.67;;;6.20;;
65234;SDS011;51820;48.374;10.930;2022-11-30T11:16:51;16.60;;;6.82;;
65234;SDS011;51820;48.374;10.930;2022-11-30T11:19:24;16.02;;;7.07;;
65234;SDS011;51820;48.374;10.930;2022-11-30T11:22:13;18.58;;;7.68;;
65234;SDS011;51820;48.374;10.930;2022-11-30T11:24:45;18.83;;;7.20;;
65234;SDS011;51820;48.374;10.930;2022-11-30T11:27:22;16.90;;;7.22;;
65234;SDS011;51820;48.374;10.930;2022-11-30T11:30:03;17.42;;;7.18;;
65234;SDS011;51820;48.374;10.930;2022-11-30T11:32:40;17.73;;;8.00;;
65234;SDS011;51820;48.374;10.930;2022-11-30T11:35:33;19.08;;;8.02;;
65234;SDS011;51820;48.374;10.930;2022-11-30T11:38:07;17.50;;;7.10;;
65234;SDS011;51820;48.374;10.930;2022-11-30T11:40:51;17.80;;;7.30;;
65234;SDS011;51820;48.374;10.930;2022-11-30T11:43:23;18.05;;;6.93;;
65234;SDS011;51820;48.374;10.930;2022-11-30T11:45:55;17.02;;;8.05;;
65234;SDS011;51820;48.374;10.930;2022-11-30T11:48:27;16.55;;;7.38;;
65234;SDS011;51820;48.374;10.930;2022-11-30T11:51:00;17.70;;;7.43;;
65234;SDS011;51820;48.374;10.930;2022-11-30T11:53:35;16.65;;;7.53;;
65234;SDS011;51820;48.374;10.930;2022-11-30T11:56:21;14.82;;;6.70;;
65234;SDS011;51820;48.374;10.930;2022-11-30T11:58:54;15.93;;;7.00;;
65234;SDS011;51820;48.374;10.930;2022-11-30T12:01:32;20.95;;;8.27;;
65234;SDS011;51820;48.374;10.930;2022-11-30T12:07:11;19.08;;;7.60;;
65234;SDS011;51820;48.374;10.930;2022-11-30T12:09:53;17.25;;;7.72;;
65234;SDS011;51820;48.374;10.930;2022-11-30T12:13:01;17.25;;;7.38;;
65234;SDS011;51820;48.374;10.930;2022-11-30T12:15:45;17.35;;;7.68;;
65234;SDS011;51820;48.374;10.930;2022-11-30T12:18:26;23.33;;;8.67;;
65234;SDS011;51820;48.374;10.930;2022-11-30T12:21:01;23.25;;;8.32;;
65234;SDS011;51820;48.374;10.930;2022-11-30T12:23:38;22.38;;;8.70;;
65234;SDS011;51820;48.374;10.930;2022-11-30T12:26:23;20.20;;;8.77;;
65234;SDS011;51820;48.374;10.930;2022-11-30T12:29:07;22.80;;;8.93;;
65234;SDS011;51820;48.374;10.930;2022-11-30T12:31:52;20.53;;;8.30;;
65234;SDS011;51820;48.374;10.930;2022-11-30T12:34:33;31.63;;;13.38;;
65234;SDS011;51820;48.374;10.930;2022-11-30T12:37:15;24.05;;;9.07;;
65234;SDS011;51820;48.374;10.930;2022-11-30T12:39:56;20.80;;;8.52;;
65234;SDS011;51820;48.374;10.930;2022-11-30T12:42:36;21.17;;;9.35;;
65234;SDS011;51820;48.374;10.930;2022-11-30T12:45:14;20.17;;;7.60;;
65234;SDS011;51820;48.374;10.930;2022-11-30T12:47:52;16.13;;;7.25;;
65234;SDS011;51820;48.374;10.930;2022-11-30T12:50:34;17.45;;;7.45;;
65234;SDS011;51820;48.374;10.930;2022-11-30T12:53:13;21.15;;;8.50;;
65234;SDS011;51820;48.374;10.930;2022-11-30T12:55:51;19.17;;;7.55;;
65234;SDS011;51820;48.374;10.930;2022-11-30T12:58:37;20.30;;;8.17;;
65234;SDS011;51820;48.374;10.930;2022-11-30T13:04:15;20.90;;;8.57;;
65234;SDS011;51820;48.374;10.930;2022-11-30T13:06:54;20.77;;;8.57;;
65234;SDS011;51820;48.374;10.930;2022-11-30T13:09:39;24.77;;;8.75;;
65234;SDS011;51820;48.374;10.930;2022-11-30T13:12:43;21.67;;;8.20;;
65234;SDS011;51820;48.374;10.930;2022-11-30T13:15:20;19.52;;;8.32;;
65234;SDS011;51820;48.374;10.930;2022-11-30T13:17:53;22.38;;;8.75;;
65234;SDS011;51820;48.374;10.930;2022-11-30T13:20:24;17.85;;;7.85;;
65234;SDS011;51820;48.374;10.930;2022-11-30T13:23:07;21.73;;;8.55;;
65234;SDS011;51820;48.374;10.930;2022-11-30T13:25:45;23.10;;;9.13;;
65234;SDS011;51820;48.374;10.930;2022-11-30T13:28:40;20.77;;;8.25;;
65234;SDS011;51820;48.374;10.930;2022-11-30T13:31:26;20.40;;;8.40;;
65234;SDS011;51820;48.374;10.930;2022-11-30T13:34:01;24.25;;;9.05;;
65234;SDS011;51820;48.374;10.930;2022-11-30T13:36:36;21.25;;;9.20;;
65234;SDS011;51820;48.374;10.930;2022-11-30T13:39:17;20.77;;;8.70;;
65234;SDS011;51820;48.374;10.930;2022-11-30T13:45:28;21.02;;;8.68;;
65234;SDS011;51820;48.374;10.930;2022-11-30T13:48:16;25.58;;;9.70;;
65234;SDS011;51820;48.374;10.930;2022-11-30T13:50:56;23.17;;;9.45;;
65234;SDS011;51820;48.374;10.930;2022-11-30T13:53:27;25.87;;;10.30;;
65234;SDS011;51820;48.374;10.930;2022-11-30T13:56:03;22.02;;;10.23;;
65234;SDS011;51820;48.374;10.930;2022-11-30T14:01:38;25.83;;;10.55;;
65234;SDS011;51820;48.374;10.930;2022-11-30T14:04:20;22.35;;;10.40;;
65234;SDS011;51820;48.374;10.930;2022-11-30T14:07:34;22.37;;;9.77;;
65234;SDS011;51820;48.374;10.930;2022-11-30T14:13:02;19.80;;;9.05;;
65234;SDS011;51820;48.374;10.930;2022-11-30T14:15:52;21.77;;;9.65;;
65234;SDS011;51820;48.374;10.930;2022-11-30T14:18:39;24.70;;;9.80;;
65234;SDS011;51820;48.374;10.930;2022-11-30T14:21:14;21.30;;;8.87;;
65234;SDS011;51820;48.374;10.930;2022-11-30T14:23:54;23.42;;;9.20;;
65234;SDS011;51820;48.374;10.930;2022-11-30T14:26:28;21.02;;;8.75;;
65234;SDS011;51820;48.374;10.930;2022-11-30T14:29:07;24.52;;;10.15;;
65234;SDS011;51820;48.374;10.930;2022-11-30T14:31:48;22.35;;;10.02;;
65234;SDS011;51820;48.374;10.930;2022-11-30T14:34:23;23.30;;;10.07;;
65234;SDS011;51820;48.374;10.930;2022-11-30T14:36:55;23.67;;;9.88;;
65234;SDS011;51820;48.374;10.930;2022-11-30T14:39:32;23.85;;;9.63;;
65234;SDS011;51820;48.374;10.930;2022-11-30T14:42:03;24.10;;;10.38;;
65234;SDS011;51820;48.374;10.930;2022-11-30T14:44:38;25.98;;;9.93;;
65234;SDS011;51820;48.374;10.930;2022-11-30T14:47:21;24.53;;;9.77;;
65234;SDS011;51820;48.374;10.930;2022-11-30T14:49:57;24.23;;;9.82;;
65234;SDS011;51820;48.374;10.930;2022-11-30T14:52:42;25.77;;;11.10;;
65234;SDS011;51820;48.374;10.930;2022-11-30T14:55:27;25.38;;;9.95;;
65234;SDS011;51820;48.374;10.930;2022-11-30T14:58:34;23.38;;;9.60;;
65234;SDS011;51820;48.374;10.930;2022-11-30T15:01:13;21.73;;;8.93;;
65234;SDS011;51820;48.374;10.930;2022-11-30T15:03:46;24.40;;;9.60;;
65234;SDS011;51820;48.374;10.930;2022-11-30T15:06:24;22.23;;;9.32;;
65234;SDS011;51820;48.374;10.930;2022-11-30T15:08:57;22.42;;;10.13;;